Historyczne dane pomiarowe

Dodano dane terminowe – wersja testowa.

Dane z okresu 1951-2019

Wersja bazy: 1.34 [2019-03-16, lista zmian], aktualizacja planowana na 2019-04-15

Dane meteo z obszaru Polski uzyskane na podstawie danych udostępnionych przez Instytut Meteorologii i Gospodarki Wodnej – Państwowy Instytut Badawczy.

 

Wybierz Datę:    

       

TemperaturaWilgotnośćWiatrCiśnienieOpadyŚniegCzas trwania zjawisk
 Stacja t tx tn tng RH VA  wxwx mslp ppp RRR   cm mm wxwxwxwxwxwxwx
1956-10-11 1.4 7.1 -2.4- 81.5- 5.0 1.0---- 0.0------------
1956-10-12 7.0 8.7 0.0- 62.8- 5.3 5.0---- 0.0------------
1956-10-13 8.2 9.9 5.5- 61.8- 7.0 5.7---- 0.0------------
1956-10-14 7.1 10.2 5.6- 62.3- 4.3 6.3---- 1.2------------
1956-10-15 1.7 8.7 -2.4- 81.3- 1.7 2.0---- 0.0------------
1956-10-16 1.5 8.6 -2.8- 86.3- 3.3 1.0---- 0.0------------
1956-10-17 1.7 11.5 -4.2- 81.5- 0.0 1.3---- 0.0------------
1956-10-18 8.0 12.7 -1.4- 60.0- 4.0 4.7---- 0.0------------
1956-10-19 10.3 11.6 9.2- 55.0- 7.7 7.3---- 0.0------------
1956-10-20 10.9 12.2 8.7- 77.5- 7.7 5.3---- 0.0------------
1956-10-21 9.8 14.6 7.1- 90.0- 5.3 1.0---- 1.7------------
1956-10-22 12.4 16.8 4.2- 79.8- 3.0 4.3---- 0.0------------
1956-10-23 10.8 16.8 6.4- 81.5- 0.7 1.3---- 0.0------------
1956-10-24 6.8 12.6 3.8- 93.3- 5.3 0.0---- 0.0------------
1956-10-25 12.2 16.0 1.5- 67.3- 0.0 4.3---- 0.0------------
1956-10-26 7.8 16.1 4.4- 83.5- 3.0 2.3---- 0.0------------
1956-10-27 10.0 17.0 1.0- 82.8- 6.3 1.3---- 0.0------------
1956-10-28 10.4 15.6 8.0- 73.0- 7.3 3.7---- 2.9------------
1956-10-29 4.4 8.6 3.1- 79.8- 7.7 2.3---- 4.3------------
1956-10-30 4.2 6.5 3.0- 83.0- 8.0 2.0---- 0.0------------
1956-10-31 -6.4 4.3 -8.8- 88.0- 5.0 2.0---- 0.0------------
1956-11-01 -0.4 7.6-12.0- 74.8- 0.0 5.0---- 0.0------------
1956-11-02 1.0 6.3 -1.8- 74.3- 5.7 3.7---- 0.0------------
1956-11-03 -1.0 1.5 -2.3- 95.5- 7.7 5.7---- 0.0------------
1956-11-04 -3.6 2.6 -6.0- 88.8- 2.7 1.0---- 0.0------------
1956-11-05 0.0 0.9 -6.6- 93.5- 5.3 10.3---- 0.0------------
1956-11-06 -0.5 1.2 -1.3- 94.0- 7.3 2.7---- 3.5------------
1956-11-07 -2.0 1.2 -4.0- 94.5- 8.0 8.3---- 2.1-- 9---------
1956-11-08 -8.1 -3.0-11.4- 85.0- 3.0 1.3---- 0.3-- 9---------
1956-11-09 -9.6 -4.0-14.5- 78.0- 3.3 0.3---- 0.0-- 8---------
116.9 ms

 

Źródłem pochodzenia danych jest Instytut Meteorologii i Gospodarki Wodnej – Państwowy Instytut Badawczy. Dane Instytutu Meteorologii i Gospodarki Wodnej – Państwowego Instytutu Badawczego zostały przetworzone.

Dane źródłowe można odnaleźć na stronie https://dane.imgw.pl